createdAt,value
2018-04-27T00:01:58.848Z,63.62
2018-04-27T00:04:27.191Z,63.43
2018-04-27T00:06:55.520Z,64.34
2018-04-27T00:09:24.179Z,64.26
2018-04-27T00:11:52.518Z,64.27
2018-04-27T00:14:22.059Z,64.63
2018-04-27T00:16:51.233Z,64.98
2018-04-27T00:19:20.422Z,65.50
2018-04-27T00:21:48.766Z,65.26
2018-04-27T00:24:18.034Z,65.65
2018-04-27T00:26:46.361Z,65.73
2018-04-27T00:29:14.702Z,65.86
2018-04-27T00:31:43.435Z,66.40
2018-04-27T00:34:12.402Z,66.60
2018-04-27T00:36:40.716Z,66.29
2018-04-27T00:39:09.062Z,66.26
2018-04-27T00:41:37.375Z,66.58
2018-04-27T00:44:05.722Z,66.97
2018-04-27T00:46:34.499Z,66.65
2018-04-27T00:49:02.826Z,66.60
2018-04-27T00:51:31.200Z,66.69
2018-04-27T00:53:59.541Z,67.00
2018-04-27T00:56:28.622Z,67.17
2018-04-27T00:58:57.731Z,67.44
2018-04-27T01:01:27.013Z,67.37
2018-04-27T01:03:55.811Z,67.14
2018-04-27T01:06:24.537Z,67.89
2018-04-27T01:08:53.071Z,68.29
2018-04-27T01:11:23.591Z,68.36
2018-04-27T01:13:51.924Z,68.05
2018-04-27T01:16:20.245Z,68.31
2018-04-27T01:18:49.479Z,68.25
2018-04-27T01:21:17.782Z,67.95
2018-04-27T01:23:46.531Z,68.58
2018-04-27T01:26:14.877Z,68.62
2018-04-27T01:28:43.206Z,67.56
2018-04-27T01:31:11.873Z,68.61
2018-04-27T01:33:40.221Z,68.46
2018-04-27T01:36:09.532Z,68.00
2018-04-27T01:38:37.916Z,68.06
2018-04-27T01:41:06.241Z,68.35
2018-04-27T01:43:34.552Z,68.31
2018-04-27T01:46:02.955Z,68.70
2018-04-27T01:48:32.357Z,68.19
2018-04-27T01:51:00.689Z,68.89
2018-04-27T01:53:29.875Z,69.10
2018-04-27T01:55:58.211Z,68.42
2018-04-27T01:58:26.529Z,68.51
2018-04-27T02:00:54.940Z,68.27
2018-04-27T02:03:24.121Z,68.67
2018-04-27T02:05:52.488Z,68.30
2018-04-27T02:08:20.824Z,67.86
2018-04-27T02:10:49.151Z,67.10
2018-04-27T02:13:17.491Z,67.30
2018-04-27T02:15:45.923Z,67.78
2018-04-27T02:18:14.277Z,68.44
2018-04-27T02:20:42.625Z,68.36
2018-04-27T02:23:11.437Z,68.60
2018-04-27T02:25:39.871Z,68.35
2018-04-27T02:28:08.198Z,68.24
2018-04-27T02:30:36.626Z,68.93
2018-04-27T02:33:05.602Z,68.59
2018-04-27T02:35:33.941Z,68.47
2018-04-27T02:38:02.283Z,68.34
2018-04-27T02:40:30.976Z,68.12
2018-04-27T02:43:00.227Z,68.23
2018-04-27T02:45:29.212Z,67.87
2018-04-27T02:47:57.529Z,67.60
2018-04-27T02:50:25.887Z,67.57
2018-04-27T02:52:54.223Z,68.10
2018-04-27T02:55:22.810Z,68.03
2018-04-27T02:57:51.990Z,67.92
2018-04-27T03:00:20.632Z,68.52
2018-04-27T03:02:48.936Z,68.39
2018-04-27T03:05:17.404Z,68.41
2018-04-27T03:07:46.141Z,68.60
2018-04-27T03:10:14.487Z,69.11
2018-04-27T03:12:42.800Z,69.85
2018-04-27T03:15:11.999Z,69.99
2018-04-27T03:17:40.355Z,69.29
2018-04-27T03:20:09.149Z,69.15
2018-04-27T03:22:37.477Z,69.51
2018-04-27T03:25:05.842Z,69.42
2018-04-27T03:27:34.159Z,69.56
2018-04-27T03:30:02.853Z,68.90
2018-04-27T03:32:31.150Z,68.88
2018-04-27T03:34:59.545Z,68.76
2018-04-27T03:37:27.854Z,68.46
2018-04-27T03:39:57.085Z,68.60
2018-04-27T03:42:25.411Z,69.71
2018-04-27T03:44:54.602Z,68.99
2018-04-27T03:47:22.924Z,68.73
2018-04-27T03:49:51.277Z,68.98
2018-04-27T03:52:20.410Z,69.04
2018-04-27T03:54:49.030Z,69.25
2018-04-27T03:57:17.577Z,69.42
2018-04-27T03:59:58.403Z,69.33
2018-04-27T04:02:38.999Z,69.88
2018-04-27T04:05:19.137Z,69.69
2018-04-27T04:07:47.453Z,69.91
2018-04-27T04:10:16.318Z,69.68
2018-04-27T04:12:45.117Z,69.39
2018-04-27T04:15:14.513Z,69.84
2018-04-27T04:17:43.035Z,70.02
2018-04-27T04:20:12.038Z,69.80
2018-04-27T04:22:40.369Z,70.67
2018-04-27T04:25:08.716Z,70.65
2018-04-27T04:27:37.081Z,70.34
2018-04-27T04:30:05.934Z,70.64
2018-04-27T04:32:34.287Z,70.33
2018-04-27T04:35:03.562Z,70.10
2018-04-27T04:37:32.273Z,70.37
2018-04-27T04:40:00.602Z,69.86
2018-04-27T04:42:28.964Z,69.89
2018-04-27T04:44:57.309Z,70.30
2018-04-27T04:47:25.660Z,70.66
2018-04-27T04:49:54.013Z,71.33
2018-04-27T04:52:22.396Z,71.03
2018-04-27T04:54:52.251Z,70.97
2018-04-27T04:57:20.611Z,71.00
2018-04-27T04:59:48.928Z,72.09
2018-04-27T05:02:17.991Z,71.85
2018-04-27T05:04:46.700Z,72.21
2018-04-27T05:07:15.945Z,71.78
2018-04-27T05:09:44.844Z,71.57
2018-04-27T05:12:13.231Z,71.08
2018-04-27T05:14:41.565Z,70.89
2018-04-27T05:17:09.893Z,71.18
2018-04-27T05:19:38.213Z,70.81
2018-04-27T05:22:06.562Z,70.12
2018-04-27T05:24:34.877Z,70.12
2018-04-27T05:27:03.223Z,69.95
2018-04-27T05:29:31.541Z,69.52
2018-04-27T05:31:59.935Z,69.46
2018-04-27T05:34:29.041Z,69.91
2018-04-27T05:36:58.454Z,69.70
2018-04-27T05:39:26.776Z,69.33
2018-04-27T05:41:55.112Z,69.07
2018-04-27T05:44:23.457Z,68.68
2018-04-27T05:46:51.801Z,68.29
2018-04-27T05:49:20.898Z,68.21
2018-04-27T05:51:49.238Z,68.06
2018-04-27T05:54:17.598Z,67.57
2018-04-27T05:56:46.671Z,67.16
2018-04-27T05:59:15.219Z,67.15
2018-04-27T06:01:43.575Z,66.92
2018-04-27T06:04:13.672Z,68.36
2018-04-27T06:06:42.020Z,70.31
2018-04-27T06:09:12.056Z,68.58
2018-04-27T06:11:41.195Z,67.31
2018-04-27T06:14:10.405Z,67.20
2018-04-27T06:16:38.779Z,67.36
2018-04-27T06:19:07.092Z,66.79
2018-04-27T06:21:35.487Z,65.74
2018-04-27T06:24:04.977Z,65.20
2018-04-27T06:26:33.298Z,64.67
2018-04-27T06:29:01.656Z,64.86
2018-04-27T06:31:30.053Z,64.84
2018-04-27T06:33:58.363Z,64.29
2018-04-27T06:36:26.751Z,64.28
2018-04-27T06:38:55.988Z,63.98
2018-04-27T06:41:24.363Z,62.87
2018-04-27T06:43:52.695Z,63.32
2018-04-27T06:46:21.913Z,63.75
2018-04-27T06:48:50.245Z,64.05
2018-04-27T06:51:18.938Z,63.17
2018-04-27T06:53:48.114Z,62.78
2018-04-27T06:56:16.463Z,62.93
2018-04-27T06:58:44.798Z,62.02
2018-04-27T07:01:13.184Z,61.85
2018-04-27T07:03:41.507Z,61.21
2018-04-27T07:06:09.856Z,60.33
2018-04-27T07:08:38.613Z,61.14
2018-04-27T07:11:07.891Z,60.08
2018-04-27T07:13:36.717Z,60.37
2018-04-27T07:16:05.077Z,60.38
2018-04-27T07:18:33.409Z,60.62
2018-04-27T07:21:01.824Z,58.88
2018-04-27T07:23:30.142Z,57.90
2018-04-27T07:25:58.613Z,58.26
2018-04-27T07:28:26.847Z,57.56
2018-04-27T07:30:55.220Z,57.63
2018-04-27T07:33:24.640Z,57.20
2018-04-27T07:35:53.310Z,56.12
2018-04-27T07:38:21.637Z,56.21
2018-04-27T07:40:49.995Z,56.34
2018-04-27T07:43:18.321Z,55.93
2018-04-27T07:45:47.245Z,55.46
2018-04-27T07:48:15.907Z,57.22
2018-04-27T07:50:45.645Z,56.37
2018-04-27T07:53:13.985Z,53.93
2018-04-27T07:55:42.324Z,53.91
2018-04-27T07:58:10.667Z,53.92
2018-04-27T08:00:39.308Z,53.87
2018-04-27T08:03:07.879Z,54.48
2018-04-27T08:05:36.237Z,54.36
2018-04-27T08:08:06.356Z,51.22
2018-04-27T08:10:36.822Z,50.20
2018-04-27T08:13:05.211Z,49.89
2018-04-27T08:15:33.543Z,50.56
2018-04-27T08:18:02.571Z,49.63
2018-04-27T08:20:31.549Z,49.24
2018-04-27T08:22:59.921Z,48.79
2018-04-27T08:25:38.128Z,48.43
2018-04-27T08:28:06.716Z,47.37
2018-04-27T08:30:35.133Z,46.98
2018-04-27T08:33:04.838Z,47.39
2018-04-27T08:35:33.169Z,47.47
2018-04-27T08:38:01.579Z,46.72
2018-04-27T08:40:29.963Z,45.94
2018-04-27T08:42:58.306Z,45.39
2018-04-27T08:45:27.709Z,45.36
2018-04-27T08:47:56.408Z,44.58
2018-04-27T08:50:28.555Z,43.97
2018-04-27T08:52:57.627Z,43.99
2018-04-27T08:55:26.239Z,45.23
2018-04-27T08:57:54.594Z,43.66
2018-04-27T09:00:23.660Z,43.96
2018-04-27T09:02:52.993Z,43.16
2018-04-27T09:05:21.328Z,43.30
2018-04-27T09:07:49.702Z,43.85
2018-04-27T09:10:18.032Z,43.91
2018-04-27T09:12:46.383Z,43.82
2018-04-27T09:15:15.046Z,43.25
2018-04-27T09:17:43.817Z,43.26
2018-04-27T09:20:12.140Z,42.17
2018-04-27T09:22:41.859Z,42.68
2018-04-27T09:25:10.255Z,41.73
2018-04-27T09:27:39.479Z,40.81
2018-04-27T09:30:08.601Z,41.31
2018-04-27T09:32:37.745Z,40.41
2018-04-27T09:35:06.126Z,40.09
2018-04-27T09:37:34.598Z,40.44
2018-04-27T09:40:02.917Z,36.87
2018-04-27T09:42:31.289Z,36.79
2018-04-27T09:45:00.443Z,37.00
2018-04-27T09:47:29.652Z,37.59
2018-04-27T09:49:58.637Z,37.13
2018-04-27T09:52:27.921Z,36.52
2018-04-27T09:54:56.704Z,38.33
2018-04-27T09:57:25.076Z,39.96
2018-04-27T09:59:53.663Z,38.75
2018-04-27T10:02:22.027Z,37.89
2018-04-27T10:04:51.263Z,38.37
2018-04-27T10:07:20.129Z,38.72
2018-04-27T10:09:48.497Z,40.58
2018-04-27T10:12:16.851Z,40.06
2018-04-27T10:14:45.183Z,40.91
2018-04-27T10:17:14.466Z,40.30
2018-04-27T10:19:42.821Z,39.34
2018-04-27T10:22:11.139Z,38.50
2018-04-27T10:24:40.303Z,38.42
2018-04-27T10:27:08.660Z,35.86
2018-04-27T10:29:37.092Z,34.43
2018-04-27T10:32:05.415Z,34.49
2018-04-27T10:34:34.153Z,34.37
2018-04-27T10:37:03.631Z,32.94
2018-04-27T10:39:32.499Z,32.39
2018-04-27T10:42:01.807Z,32.35
2018-04-27T10:44:30.143Z,33.29
2018-04-27T10:46:59.264Z,31.06
2018-04-27T10:49:28.447Z,29.25
2018-04-27T10:51:57.704Z,29.81
2018-04-27T10:54:26.102Z,28.76
2018-04-27T10:56:54.485Z,29.34
2018-04-27T10:59:23.695Z,29.38
2018-04-27T11:01:52.398Z,29.03
2018-04-27T11:04:20.736Z,28.32
2018-04-27T11:06:50.274Z,28.04
2018-04-27T11:09:19.421Z,27.82
2018-04-27T11:11:47.763Z,28.85
2018-04-27T11:14:18.027Z,29.32
2018-04-27T11:16:47.257Z,30.10
2018-04-27T11:19:15.538Z,28.68
2018-04-27T11:21:44.103Z,27.60
2018-04-27T11:24:12.870Z,27.51
2018-04-27T11:26:42.017Z,28.48
2018-04-27T11:29:10.626Z,28.20
2018-04-27T11:31:40.198Z,28.14
2018-04-27T11:34:09.441Z,29.88
2018-04-27T11:36:38.528Z,29.30
2018-04-27T11:39:07.018Z,28.67
2018-04-27T11:41:35.569Z,27.45
2018-04-27T11:44:03.929Z,27.52
2018-04-27T11:46:32.290Z,27.76
2018-04-27T11:49:00.969Z,30.01
2018-04-27T11:51:30.767Z,29.66
2018-04-27T11:53:59.254Z,28.08
2018-04-27T11:56:27.577Z,28.10
2018-04-27T11:58:55.947Z,27.87
2018-04-27T12:01:25.030Z,27.14
2018-04-27T12:03:53.703Z,27.90
2018-04-27T12:06:22.383Z,27.25
2018-04-27T12:08:50.740Z,26.79
2018-04-27T12:11:19.048Z,28.11
2018-04-27T12:13:48.307Z,26.52
2018-04-27T12:16:17.289Z,28.13
2018-04-27T12:18:45.640Z,27.00
2018-04-27T12:21:13.976Z,27.39
2018-04-27T12:23:42.559Z,27.61
2018-04-27T12:26:11.319Z,26.73
2018-04-27T12:28:39.718Z,27.39
2018-04-27T12:31:08.051Z,28.70
2018-04-27T12:33:36.396Z,28.06
2018-04-27T12:36:05.829Z,26.22
2018-04-27T12:38:34.164Z,27.35
2018-04-27T12:41:02.622Z,27.42
2018-04-27T12:43:31.412Z,25.99
2018-04-27T12:46:00.908Z,27.00
2018-04-27T12:48:29.257Z,26.48
2018-04-27T12:50:58.394Z,27.06
2018-04-27T12:53:27.718Z,27.66
2018-04-27T12:55:56.393Z,28.43
2018-04-27T12:58:25.658Z,29.19
2018-04-27T13:00:54.808Z,26.68
2018-04-27T13:03:23.676Z,26.78
2018-04-27T13:05:52.001Z,25.60
2018-04-27T13:08:20.340Z,25.66
2018-04-27T13:10:48.720Z,25.31
2018-04-27T13:13:17.083Z,24.98
2018-04-27T13:15:47.298Z,25.99
2018-04-27T13:18:15.775Z,28.63
2018-04-27T13:20:44.473Z,26.95
2018-04-27T13:23:13.663Z,26.33
2018-04-27T13:25:42.648Z,25.80
2018-04-27T13:28:12.151Z,25.89
2018-04-27T13:30:40.602Z,26.76
2018-04-27T13:33:09.212Z,27.38
2018-04-27T13:35:38.256Z,26.69
2018-04-27T13:38:06.609Z,26.46
2018-04-27T13:40:34.965Z,25.94
2018-04-27T13:43:03.313Z,25.68
2018-04-27T13:45:31.724Z,24.98
2018-04-27T13:48:00.023Z,27.69
2018-04-27T13:50:29.061Z,26.65
2018-04-27T13:52:57.465Z,25.55
2018-04-27T13:55:27.141Z,25.15
2018-04-27T13:57:55.924Z,25.84
2018-04-27T14:00:24.269Z,25.16
2018-04-27T14:02:53.010Z,25.84
2018-04-27T14:05:21.599Z,26.16
2018-04-27T14:07:49.953Z,26.70
2018-04-27T14:10:18.275Z,26.37
2018-04-27T14:12:46.942Z,26.00
2018-04-27T14:15:15.259Z,25.66
2018-04-27T14:17:43.618Z,26.40
2018-04-27T14:20:11.944Z,26.68
2018-04-27T14:22:40.959Z,26.15
2018-04-27T14:25:10.236Z,26.77
2018-04-27T14:27:41.741Z,27.56
2018-04-27T14:30:10.434Z,27.51
2018-04-27T14:32:39.633Z,26.62
2018-04-27T14:35:08.011Z,26.53
2018-04-27T14:37:36.340Z,26.58
2018-04-27T14:40:04.937Z,26.43
2018-04-27T14:42:33.288Z,26.33
2018-04-27T14:45:01.851Z,26.38
2018-04-27T14:47:30.237Z,26.55
2018-04-27T14:49:58.561Z,26.93
2018-04-27T14:52:27.312Z,28.21
2018-04-27T14:54:56.596Z,27.66
2018-04-27T14:57:24.937Z,26.81
2018-04-27T14:59:53.693Z,27.51
2018-04-27T15:02:22.040Z,26.89
2018-04-27T15:04:51.609Z,26.22
2018-04-27T15:07:19.958Z,26.62
2018-04-27T15:09:48.331Z,26.70
2018-04-27T15:12:17.519Z,27.28
2018-04-27T15:14:46.635Z,27.66
2018-04-27T15:17:15.099Z,26.63
2018-04-27T15:19:43.525Z,28.19
2018-04-27T15:22:11.904Z,27.90
2018-04-27T15:24:41.418Z,27.06
2018-04-27T15:27:10.683Z,27.60
2018-04-27T15:29:39.027Z,27.43
2018-04-27T15:32:07.396Z,27.86
2018-04-27T15:34:36.549Z,27.71
2018-04-27T15:37:04.887Z,27.28
2018-04-27T15:39:33.350Z,27.36
2018-04-27T15:42:01.684Z,27.18
2018-04-27T15:44:30.302Z,27.34
2018-04-27T15:46:59.566Z,27.71
2018-04-27T15:49:27.920Z,27.62
2018-04-27T15:51:57.173Z,27.47
2018-04-27T15:54:26.050Z,26.93
2018-04-27T15:56:54.423Z,26.52
2018-04-27T15:59:23.731Z,26.24
2018-04-27T16:01:53.341Z,25.70
2018-04-27T16:04:21.974Z,25.57
2018-04-27T16:06:50.899Z,25.91
2018-04-27T16:09:19.624Z,26.49
2018-04-27T16:11:48.064Z,26.89
2018-04-27T16:14:16.411Z,26.48
2018-04-27T16:16:45.233Z,25.83
2018-04-27T16:19:14.132Z,26.30
2018-04-27T16:21:42.471Z,25.60
2018-04-27T16:24:11.749Z,25.88
2018-04-27T16:26:40.129Z,25.70
2018-04-27T16:29:08.489Z,25.31
2018-04-27T16:31:36.839Z,26.19
2018-04-27T16:34:05.652Z,26.41
2018-04-27T16:36:34.874Z,26.74
2018-04-27T16:39:03.232Z,28.07
2018-04-27T16:41:31.540Z,27.84
2018-04-27T16:44:00.336Z,28.03
2018-04-27T16:46:29.055Z,28.14
2018-04-27T16:48:58.217Z,28.28
2018-04-27T16:51:26.664Z,28.04
2018-04-27T16:53:55.856Z,28.02
2018-04-27T16:56:24.607Z,27.60
2018-04-27T16:58:53.660Z,27.10
2018-04-27T17:01:21.999Z,27.38
2018-04-27T17:03:50.365Z,26.90
2018-04-27T17:06:19.497Z,26.97
2018-04-27T17:08:48.653Z,27.37
2018-04-27T17:11:18.087Z,27.48
2018-04-27T17:13:47.268Z,26.99
2018-04-27T17:16:16.894Z,27.63
2018-04-27T17:18:46.191Z,27.95
2018-04-27T17:21:14.520Z,28.31
2018-04-27T17:23:43.604Z,28.61
2018-04-27T17:26:11.924Z,28.83
2018-04-27T17:28:40.362Z,28.99
2018-04-27T17:31:08.624Z,29.21
2018-04-27T17:33:37.656Z,29.37
2018-04-27T17:36:07.501Z,30.05
2018-04-27T17:38:35.857Z,30.29
2018-04-27T17:41:05.403Z,30.45
2018-04-27T17:43:34.629Z,30.91
2018-04-27T17:46:02.881Z,31.11
2018-04-27T17:48:32.753Z,32.08
2018-04-27T17:51:01.534Z,32.33
2018-04-27T17:53:29.936Z,33.35
2018-04-27T17:55:58.247Z,34.16
2018-04-27T17:58:26.587Z,34.05
2018-04-27T18:00:55.267Z,34.75
2018-04-27T18:03:24.366Z,36.27
2018-04-27T18:05:52.922Z,36.10
2018-04-27T18:08:22.184Z,35.54
2018-04-27T18:10:50.564Z,35.56
2018-04-27T18:13:18.962Z,35.70
2018-04-27T18:15:47.332Z,37.22
2018-04-27T18:18:15.818Z,37.10
2018-04-27T18:20:45.073Z,38.09
2018-04-27T18:23:14.366Z,39.16
2018-04-27T18:25:42.768Z,39.58
2018-04-27T18:28:11.037Z,38.63
2018-04-27T18:30:39.411Z,39.67
2018-04-27T18:33:07.790Z,40.47
2018-04-27T18:35:36.488Z,40.37
2018-04-27T18:38:04.935Z,40.21
2018-04-27T18:40:34.197Z,41.36
2018-04-27T18:43:05.198Z,41.37
2018-04-27T18:45:34.686Z,40.57
2018-04-27T18:48:08.472Z,40.85
2018-04-27T18:50:39.765Z,40.63
2018-04-27T18:53:08.826Z,41.02
2018-04-27T18:55:38.148Z,41.25
2018-04-27T18:58:07.328Z,39.85
2018-04-27T19:00:38.869Z,42.15
2018-04-27T19:03:07.740Z,44.69
2018-04-27T19:05:36.833Z,44.57
2018-04-27T19:08:08.703Z,44.23
2018-04-27T19:10:38.002Z,45.06
2018-04-27T19:13:14.556Z,45.12
2018-04-27T19:15:43.409Z,43.99
2018-04-27T19:18:25.330Z,44.34
2018-04-27T19:20:53.805Z,44.57
2018-04-27T19:23:23.805Z,44.74
2018-04-27T19:25:55.907Z,45.13
2018-04-27T19:28:25.049Z,44.21
2018-04-27T19:30:53.516Z,44.39
2018-04-27T19:33:22.292Z,44.31
2018-04-27T19:35:50.980Z,44.09
2018-04-27T19:38:19.856Z,45.45
2018-04-27T19:40:49.143Z,45.98
2018-04-27T19:43:17.824Z,45.89
2018-04-27T19:45:46.349Z,46.25
2018-04-27T19:48:14.793Z,46.81
2018-04-27T19:50:44.092Z,47.64
2018-04-27T19:53:13.253Z,47.97
2018-04-27T19:55:42.657Z,48.69
2018-04-27T19:58:10.989Z,48.55
2018-04-27T20:00:40.402Z,48.46
2018-04-27T20:03:08.744Z,48.58
2018-04-27T20:05:49.926Z,49.06
2018-04-27T20:08:22.098Z,48.99
2018-04-27T20:10:50.583Z,48.81
2018-04-27T20:13:20.688Z,50.88
2018-04-27T20:15:51.715Z,50.41
2018-04-27T20:18:23.784Z,50.88
2018-04-27T20:20:53.914Z,50.62
2018-04-27T20:23:22.943Z,50.62
2018-04-27T20:25:52.557Z,51.80
2018-04-27T20:28:21.120Z,51.12
2018-04-27T20:30:49.509Z,50.58
2018-04-27T20:33:23.677Z,51.49
2018-04-27T20:36:02.916Z,50.24
2018-04-27T20:38:31.975Z,50.43
2018-04-27T20:41:03.366Z,50.65
2018-04-27T20:43:32.059Z,50.66
2018-04-27T20:46:01.287Z,50.91
2018-04-27T20:48:31.788Z,50.81
2018-04-27T20:51:03.109Z,51.53
2018-04-27T20:53:32.416Z,52.03
2018-04-27T20:56:03.307Z,52.74
2018-04-27T20:58:32.196Z,52.07
2018-04-27T21:01:01.486Z,52.98
2018-04-27T21:03:30.540Z,53.98
2018-04-27T21:05:59.064Z,53.20
2018-04-27T21:08:27.392Z,53.75
2018-04-27T21:10:55.834Z,53.83
2018-04-27T21:13:24.620Z,53.38
2018-04-27T21:15:52.978Z,54.51
2018-04-27T21:18:21.579Z,54.65
2018-04-27T21:20:50.683Z,54.92
2018-04-27T21:23:19.351Z,54.66
2018-04-27T21:25:57.622Z,54.04
2018-04-27T21:28:41.751Z,53.94
2018-04-27T21:31:10.095Z,53.69
2018-04-27T21:36:38.792Z,53.43
2018-04-27T21:39:27.159Z,53.94
2018-04-27T21:42:07.199Z,53.76
2018-04-27T21:44:42.177Z,54.43
2018-04-27T21:47:20.568Z,54.81
2018-04-27T21:49:52.392Z,54.81
2018-04-27T21:52:28.116Z,55.19
2018-04-27T21:54:57.299Z,54.35
2018-04-27T21:57:30.285Z,54.96
2018-04-27T22:00:15.706Z,54.99
2018-04-27T22:06:09.647Z,56.61
2018-04-27T22:08:44.221Z,55.96
2018-04-27T22:11:19.109Z,57.48
2018-04-27T22:13:47.902Z,58.51
2018-04-27T22:16:24.804Z,57.79
2018-04-27T22:18:54.723Z,57.38
2018-04-27T22:21:25.071Z,57.82
2018-04-27T22:24:04.942Z,57.33
2018-04-27T22:26:35.549Z,56.77
2018-04-27T22:29:23.017Z,57.76
2018-04-27T22:34:56.317Z,58.09
2018-04-27T22:37:25.947Z,59.07
2018-04-27T22:42:56.233Z,59.69
2018-04-27T22:45:31.217Z,59.13
2018-04-27T22:51:14.997Z,57.95
2018-04-27T22:53:47.225Z,57.56
2018-04-27T22:59:34.852Z,57.67
2018-04-27T23:02:05.879Z,58.18
2018-04-27T23:04:34.829Z,58.48
2018-04-27T23:07:04.477Z,58.39
2018-04-27T23:09:32.860Z,58.15
2018-04-27T23:12:04.006Z,57.81
2018-04-27T23:14:35.883Z,57.52
2018-04-27T23:17:04.291Z,57.67
2018-04-27T23:19:39.527Z,58.08
2018-04-27T23:22:44.402Z,58.28
2018-04-27T23:25:19.857Z,58.09
2018-04-27T23:27:50.477Z,58.19
2018-04-27T23:30:20.259Z,58.43
2018-04-27T23:32:48.652Z,58.99
2018-04-27T23:35:20.194Z,59.38
2018-04-27T23:37:51.744Z,58.70
2018-04-27T23:40:20.880Z,59.28
2018-04-27T23:42:50.174Z,59.26
2018-04-27T23:45:18.606Z,59.08
2018-04-27T23:47:48.516Z,59.20
2018-04-27T23:50:18.387Z,59.45
2018-04-27T23:52:48.281Z,59.88
2018-04-27T23:55:19.853Z,60.77
2018-04-27T23:57:49.451Z,61.48
